»·PEaware :: N8676U KLAS-KFUL

N8676U :: KLAS-KFUL

FLIGHT INFORMATION

Flight Status: Arrived
Operator: Privately registered:
United States
More flights under this callsign
Pilot: Anonymous 18083 (18083)
Aircraft: PIPER PA-28 CHEROKEE ARCHER
(PA28)
More flights by this aircraft type
Origin: KLAS McCarran Intl
United States
Destination: KFUL Fullerton Mun
United States
More flights between these airports :: More routes between these airports
Route: + GFS V210 HEC DAWNA PDZ PDZ270/013 RNDAL V363 POXKU V8 SLI
File this flight plan on PilotEdge
Remarks: Sample flight plan
Altitude:
(Current/Filed)
12,000ft
Speed:
(Current/Filed)
100kts
Departed: 04-Jun-19 08:07 PM
Arrived: 04-Jun-19 09:56 PM
Distance/Time
Traveled:
192nm/1:49
Distance/Time
To Go:
Arrived

Flight Plot

Page will automatically refresh every two minutes.

Flight plan parsing failed; only flown route is shown


Map Options




Map Legend


Flown Route
Filed Route
Departure Airport
Arrival Airport
Navaid (VOR, NDB)
Fix

Horizontal Profiles

Position Reports

Time Latitude Longitude Heading Altitude Ground
Speed
04-Jun-19 19:52 36.098628 -115.161148 115 2100ft 0kts
04-Jun-19 19:53 36.098628 -115.161148 115 2100ft 0kts
04-Jun-19 19:54 36.098628 -115.161148 115 2100ft 0kts
04-Jun-19 19:55 36.098628 -115.161148 115 2100ft 0kts
04-Jun-19 19:56 36.098628 -115.161148 115 2100ft 0kts
04-Jun-19 19:57 36.098628 -115.161148 115 2100ft 0kts
04-Jun-19 19:58 36.098628 -115.161148 115 2100ft 0kts
04-Jun-19 19:59 36.098628 -115.161148 115 2100ft 0kts
04-Jun-19 20:00 36.098447 -115.160181 180 2097ft 7kts
04-Jun-19 20:01 36.096317 -115.161196 203 2102ft 17kts
04-Jun-19 20:02 36.094556 -115.160930 35 2105ft 18kts
04-Jun-19 20:03 36.099509 -115.157993 179 2086ft 0kts
04-Jun-19 20:04 36.099509 -115.157993 179 2086ft 0kts
04-Jun-19 20:05 36.099637 -115.156918 106 2084ft 11kts
04-Jun-19 20:06 36.086763 -115.164629 210 2421ft 79kts
04-Jun-19 20:07 36.064918 -115.183475 199 2905ft 118kts
04-Jun-19 20:08 36.032775 -115.198169 206 3360ft 118kts
04-Jun-19 20:09 36.006922 -115.223961 235 3732ft 123kts
04-Jun-19 20:10 35.990487 -115.258901 239 4386ft 109kts
04-Jun-19 20:11 35.976799 -115.289205 239 5016ft 94kts
04-Jun-19 20:12 35.955420 -115.302559 189 5540ft 88kts
04-Jun-19 20:13 35.927501 -115.306730 186 5691ft 120kts
04-Jun-19 20:14 35.890543 -115.311207 185 5685ft 143kts
04-Jun-19 20:15 35.849685 -115.314055 175 5683ft 150kts
04-Jun-19 20:16 35.807932 -115.309506 175 5682ft 152kts
04-Jun-19 20:17 35.768087 -115.304941 175 6033ft 134kts
04-Jun-19 20:18 35.736426 -115.301255 177 6827ft 95kts
04-Jun-19 20:19 35.711514 -115.298315 184 7212ft 96kts
04-Jun-19 20:20 35.683253 -115.296184 178 7572ft 107kts
04-Jun-19 20:21 35.652381 -115.293662 178 7921ft 115kts
04-Jun-19 20:22 35.620750 -115.285152 161 8265ft 121kts
04-Jun-19 20:23 35.588172 -115.275464 171 8602ft 124kts
04-Jun-19 20:24 35.553985 -115.267776 171 8943ft 126kts
04-Jun-19 20:25 35.519392 -115.260205 171 9283ft 126kts
04-Jun-19 20:26 35.484469 -115.252618 171 9627ft 128kts
04-Jun-19 20:27 35.448997 -115.244896 173 9960ft 131kts
04-Jun-19 20:28 35.412520 -115.237053 173 10302ft 134kts
04-Jun-19 20:29 35.375371 -115.229015 172 10631ft 137kts
04-Jun-19 20:30 35.337854 -115.220931 172 10966ft 137kts
04-Jun-19 20:31 35.300347 -115.212803 173 11306ft 137kts
04-Jun-19 20:32 35.262758 -115.204711 173 11643ft 137kts
04-Jun-19 20:33 35.225215 -115.196654 172 11934ft 140kts
04-Jun-19 20:34 35.184155 -115.187854 172 11938ft 157kts
04-Jun-19 20:35 35.140123 -115.181814 209 11932ft 159kts
04-Jun-19 20:36 35.120144 -115.225300 253 11936ft 153kts
04-Jun-19 20:37 35.106452 -115.274905 254 11935ft 154kts
04-Jun-19 20:38 35.093424 -115.325203 254 11936ft 156kts
04-Jun-19 20:39 35.080355 -115.376346 254 11936ft 159kts
04-Jun-19 20:40 35.067044 -115.428381 253 11937ft 161kts
04-Jun-19 20:41 35.053656 -115.480605 253 11937ft 162kts
04-Jun-19 20:42 35.040204 -115.533013 253 11955ft 161kts
04-Jun-19 20:43 35.026756 -115.585308 253 11955ft 162kts
04-Jun-19 20:44 35.013235 -115.637783 253 11955ft 162kts
04-Jun-19 20:45 34.999871 -115.689515 253 12069ft 156kts
04-Jun-19 20:47 34.986599 -115.740818 253 12074ft 160kts
04-Jun-19 20:48 34.973036 -115.793080 254 12074ft 163kts
04-Jun-19 20:49 34.959283 -115.846111 254 12075ft 164kts
04-Jun-19 20:50 34.945478 -115.899162 254 12090ft 163kts
04-Jun-19 20:51 34.931637 -115.952237 254 12092ft 164kts
04-Jun-19 20:52 34.917776 -116.005291 254 12092ft 165kts
04-Jun-19 20:53 34.903827 -116.058570 254 12079ft 166kts
04-Jun-19 20:54 34.889603 -116.112793 254 12017ft 166kts
04-Jun-19 20:55 34.875591 -116.166090 254 12017ft 165kts
04-Jun-19 20:56 34.861582 -116.219265 254 12017ft 164kts
04-Jun-19 20:57 34.847466 -116.272375 256 12018ft 165kts
04-Jun-19 20:58 34.833428 -116.325626 258 12015ft 164kts
04-Jun-19 20:59 34.819675 -116.377684 258 12016ft 160kts
04-Jun-19 21:00 34.806065 -116.428982 258 12015ft 158kts
04-Jun-19 21:01 34.785514 -116.476008 232 12034ft 163kts
04-Jun-19 21:02 34.754022 -116.515833 230 12036ft 164kts
04-Jun-19 21:03 34.721769 -116.555662 230 12035ft 166kts
04-Jun-19 21:04 34.689137 -116.595820 230 12035ft 168kts
04-Jun-19 21:05 34.656233 -116.636234 230 12034ft 168kts
04-Jun-19 21:06 34.623254 -116.676694 229 12036ft 168kts
04-Jun-19 21:06 34.595754 -116.710391 230 12036ft 168kts
04-Jun-19 21:07 34.562741 -116.750798 230 12036ft 168kts
04-Jun-19 21:09 34.524569 -116.797431 229 12205ft 162kts
04-Jun-19 21:09 34.498437 -116.829308 229 12374ft 161kts
04-Jun-19 21:10 34.465997 -116.868927 229 12377ft 169kts
04-Jun-19 21:12 34.426854 -116.916622 229 12377ft 172kts
04-Jun-19 21:12 34.398559 -116.951043 229 12376ft 173kts
04-Jun-19 21:13 34.364532 -116.992396 229 12375ft 173kts
04-Jun-19 21:14 34.330350 -117.033892 229 12324ft 177kts
04-Jun-19 21:15 34.295488 -117.076155 229 12284ft 176kts
04-Jun-19 21:16 34.260989 -117.117922 229 12284ft 174kts
04-Jun-19 21:17 34.226375 -117.159831 228 12143ft 181kts
04-Jun-19 21:18 34.190604 -117.203005 228 12027ft 178kts
04-Jun-19 21:19 34.155412 -117.245483 228 11812ft 184kts
04-Jun-19 21:20 34.117755 -117.290922 227 11052ft 203kts
04-Jun-19 21:21 34.077031 -117.339934 227 10038ft 208kts
04-Jun-19 21:22 34.036055 -117.389149 227 9013ft 207kts
04-Jun-19 21:23 33.995656 -117.437559 227 7988ft 203kts
04-Jun-19 21:24 33.956075 -117.484949 228 7026ft 198kts
04-Jun-19 21:25 33.923234 -117.535167 266 6103ft 187kts
04-Jun-19 21:26 33.932942 -117.595113 286 5211ft 180kts
04-Jun-19 21:27 33.945821 -117.653042 285 4301ft 178kts
04-Jun-19 21:28 33.938107 -117.703871 229 4025ft 159kts
04-Jun-19 21:29 33.917343 -117.747582 256 4027ft 148kts
04-Jun-19 21:30 33.907463 -117.796145 257 3963ft 154kts
04-Jun-19 21:31 33.897968 -117.845041 257 3493ft 142kts
04-Jun-19 21:32 33.889191 -117.890129 255 2917ft 142kts
04-Jun-19 21:33 33.880923 -117.936056 272 2101ft 153kts
04-Jun-19 21:34 33.871596 -117.981099 257 1200ft 101kts
04-Jun-19 21:35 33.862684 -118.015402 266 1048ft 106kts
04-Jun-19 21:36 33.845884 -118.035969 198 1063ft 93kts
04-Jun-19 21:37 33.820251 -118.046296 201 1120ft 106kts
04-Jun-19 21:38 33.789485 -118.058438 201 1479ft 119kts
04-Jun-19 21:39 33.757811 -118.070976 200 1959ft 119kts
04-Jun-19 21:40 33.739453 -118.052594 56 2424ft 122kts
04-Jun-19 21:41 33.769232 -118.040698 58 2633ft 136kts
04-Jun-19 21:42 33.791240 -117.999725 62 2628ft 151kts
04-Jun-19 21:43 33.809687 -117.956909 63 2993ft 136kts
04-Jun-19 21:44 33.826313 -117.917102 63 3026ft 129kts
04-Jun-19 21:45 33.842019 -117.878650 63 3027ft 126kts
04-Jun-19 21:46 33.857281 -117.840826 62 3027ft 124kts
04-Jun-19 21:47 33.872244 -117.803440 62 3027ft 123kts
04-Jun-19 21:48 33.896399 -117.778686 357 2982ft 123kts
04-Jun-19 21:49 33.900337 -117.811471 246 2781ft 119kts
04-Jun-19 21:50 33.895776 -117.845205 263 1951ft 85kts
04-Jun-19 21:51 33.890990 -117.876598 257 1287ft 91kts
04-Jun-19 21:52 33.885500 -117.906498 257 1211ft 95kts
04-Jun-19 21:53 33.880075 -117.936477 259 1026ft 78kts
04-Jun-19 21:54 33.875521 -117.961077 259 458ft 73kts
04-Jun-19 21:55 33.872126 -117.979209 246 92ft 14kts
04-Jun-19 21:56 33.871274 -117.979151 184 92ft 9kts

Navigation Log

Ident Type
Flight plan parsing failed, navigation log unavailable